Terminal Aerodrome Forecast
Issued by NWS Cleveland, OH

Home | Current Version | Previous Version | Graphics & Text | Print | Product List | Glossary On
Versions: 1 2 3 4 5 6 7 8 9 10 11 12 13 14 15 16 17 18 19 20 21 22 23 24 25 26 27 28 29 30 31 32 33
000
FTUS41 KCLE 231100 CCA
TAFCLE
TAF COR
KCLE 231158Z 2312/2418 15010KT P6SM OVC025
      TEMPO 2312/2316 OVC015
     FM231900 16010KT P6SM OVC015
     FM240000 15005KT P6SM OVC015
     FM240600 15005KT 6SM -SHRA BR OVC007
     FM241200 14006KT 3SM -SHRA BR OVC004=

USA.gov is the U.S. government's official web portal to all federal, state and local government web resources and services.